Time;durP1;ratioP1;P1;durP2;ratioP2;P2;SDS_P1;SDS_P2;PMS_P1;PMS_P2;Temp;Humidity;BMP_temperature;BMP_pressure;BME280_temperature;BME280_humidity;BME280_pressure;Samples;Min_cycle;Max_cycle;Signal;HPM_P1;HPM_P2
2023/04/26 00:02:05;;;;;;;14.90;10.20;;;;;;;6.54;78.34;96668.44;5036321;28;20556;-79
2023/04/26 00:04:34;;;;;;;16.95;11.20;;;;;;;6.51;77.74;96671.31;5036042;28;20053;-79
2023/04/26 00:07:02;;;;;;;20.33;11.60;;;;;;;6.46;77.62;96666.59;5036539;28;20073;-79
2023/04/26 00:09:30;;;;;;;14.43;10.77;;;;;;;6.44;77.55;96663.34;5036133;28;20060;-79
2023/04/26 00:11:58;;;;;;;16.55;11.13;;;;;;;6.40;77.63;96662.03;5035891;28;20087;-78
2023/04/26 00:14:25;;;;;;;19.33;11.65;;;;;;;6.37;77.78;96662.34;5035634;28;20050;-79
2023/04/26 00:16:53;;;;;;;15.98;10.43;;;;;;;6.37;77.66;96662.34;5035776;28;20054;-78
2023/04/26 00:19:20;;;;;;;12.52;8.95;;;;;;;6.37;78.08;96663.16;5036105;28;20057;-79
2023/04/26 00:21:49;;;;;;;18.65;10.68;;;;;;;6.38;77.87;96666.53;5036217;28;20077;-79
2023/04/26 00:24:17;;;;;;;17.05;10.30;;;;;;;6.36;77.73;96665.88;5036090;28;20099;-79
2023/04/26 00:26:45;;;;;;;15.35;10.95;;;;;;;6.31;77.53;96662.94;5035668;28;20049;-80
2023/04/26 00:29:12;;;;;;;14.32;10.55;;;;;;;6.27;77.78;96667.59;5035888;28;20501;-79
2023/04/26 00:31:40;;;;;;;14.77;10.45;;;;;;;6.23;77.60;96668.91;5035766;28;20049;-79
2023/04/26 00:34:07;;;;;;;19.08;12.88;;;;;;;6.21;77.49;96668.25;5040570;28;20057;-79
2023/04/26 00:36:35;;;;;;;23.23;15.05;;;;;;;6.18;77.75;96663.34;5048308;28;20057;-80
2023/04/26 00:39:04;;;;;;;23.98;15.35;;;;;;;6.15;77.83;96664.47;5046088;28;20136;-80
2023/04/26 00:41:32;;;;;;;21.13;13.70;;;;;;;6.15;78.27;96669.66;5036601;28;20049;-79
2023/04/26 00:43:59;;;;;;;19.60;13.65;;;;;;;6.16;78.12;96668.69;5035605;28;20049;-79
2023/04/26 00:46:28;;;;;;;19.92;12.95;;;;;;;6.14;77.98;96667.22;5035279;28;20057;-79
2023/04/26 00:48:56;;;;;;;16.77;11.10;;;;;;;6.13;78.38;96671.59;5035481;28;20095;-79
2023/04/26 00:51:23;;;;;;;18.00;12.02;;;;;;;6.13;78.50;96670.78;5033431;28;20049;-79
2023/04/26 00:53:51;;;;;;;15.20;10.25;;;;;;;6.13;78.49;96670.78;5005662;28;20132;-78
2023/04/26 00:56:21;;;;;;;19.58;11.85;;;;;;;6.14;78.37;96675.81;5034756;28;20053;-78
2023/04/26 00:58:48;;;;;;;17.00;10.82;;;;;;;6.14;78.20;96675.81;5003355;28;20054;-78
2023/04/26 01:01:16;;;;;;;17.00;11.27;;;;;;;6.13;78.65;96676.75;4999314;28;20068;-78
2023/04/26 01:03:45;;;;;;;17.85;11.30;;;;;;;6.12;78.11;96677.75;4996397;28;20051;-78
2023/04/26 01:06:13;;;;;;;15.57;10.68;;;;;;;6.12;78.14;96680.34;5004162;28;20052;-78
2023/04/26 01:08:41;;;;;;;15.43;10.40;;;;;;;6.15;78.36;96686.97;5014909;28;20050;-78
2023/04/26 01:11:09;;;;;;;15.30;10.30;;;;;;;6.21;78.64;96678.59;5007687;28;20056;-78
2023/04/26 01:13:38;;;;;;;19.65;11.90;;;;;;;6.28;78.72;96695.16;5008606;28;20072;-78
2023/04/26 01:16:08;;;;;;;15.32;11.27;;;;;;;6.37;79.21;96691.66;5006909;28;20058;-78
2023/04/26 01:18:35;;;;;;;19.35;11.88;;;;;;;6.39;78.51;96683.72;5000020;28;20052;-78
2023/04/26 01:21:04;;;;;;;14.55;10.85;;;;;;;6.38;78.37;96684.69;4995293;28;20061;-78
2023/04/26 01:23:33;;;;;;;17.58;11.55;;;;;;;6.33;78.09;96687.72;4998598;28;20046;-78
2023/04/26 01:26:00;;;;;;;16.83;11.52;;;;;;;6.26;78.59;96691.09;5014723;28;20041;-78
2023/04/26 01:28:28;;;;;;;14.73;10.23;;;;;;;6.26;78.48;96691.09;5013268;28;20049;-78
2023/04/26 01:30:55;;;;;;;17.25;11.75;;;;;;;6.26;79.23;96688.50;5008171;28;20518;-78
2023/04/26 01:33:23;;;;;;;17.15;11.63;;;;;;;6.25;78.82;96684.28;4994915;28;20478;-78
2023/04/26 01:35:51;;;;;;;14.15;10.57;;;;;;;6.23;79.60;96683.63;4999942;28;20077;-78
2023/04/26 01:38:19;;;;;;;15.10;10.13;;;;;;;6.22;79.35;96684.59;5014164;28;20045;-78
2023/04/26 01:40:47;;;;;;;16.45;11.13;;;;;;;6.22;80.24;96684.59;5010058;28;20116;-78
2023/04/26 01:43:17;;;;;;;20.08;13.10;;;;;;;6.21;79.48;96688.97;5007338;28;20512;-79
2023/04/26 01:45:46;;;;;;;16.58;11.52;;;;;;;6.13;79.15;96692.31;5003234;28;20498;-78
2023/04/26 01:48:14;;;;;;;21.08;12.05;;;;;;;6.10;79.12;96687.44;5008178;28;20133;-78
2023/04/26 01:50:41;;;;;;;15.18;10.90;;;;;;;6.10;79.33;96692.63;4998101;28;20417;-78
2023/04/26 01:53:09;;;;;;;14.70;10.70;;;;;;;6.15;80.60;96694.75;5013761;28;20136;-78
2023/04/26 01:55:37;;;;;;;19.48;11.77;;;;;;;6.19;80.51;96698.66;5011562;28;20070;-78
2023/04/26 01:58:05;;;;;;;19.52;12.45;;;;;;;6.09;78.29;96690.97;4994842;28;20134;-79
2023/04/26 02:00:33;;;;;;;18.73;11.98;;;;;;;6.01;78.17;96692.69;5000103;28;20050;-78
2023/04/26 02:03:01;;;;;;;15.05;11.07;;;;;;;5.93;78.39;96685.66;4994495;28;20056;-78
2023/04/26 02:05:28;;;;;;;18.92;12.18;;;;;;;5.87;77.92;96691.44;5002986;28;20061;-78
2023/04/26 02:07:56;;;;;;;19.63;13.07;;;;;;;5.78;78.13;96691.38;5009931;28;20046;-78
2023/04/26 02:10:23;;;;;;;20.92;12.60;;;;;;;5.73;78.31;96688.41;4994851;28;20054;-78
2023/04/26 02:12:51;;;;;;;16.83;12.07;;;;;;;5.70;78.43;96682.72;4996084;28;20498;-78
2023/04/26 02:15:20;;;;;;;17.13;11.93;;;;;;;5.67;78.31;96690.78;5008400;28;20134;-78
2023/04/26 02:17:48;;;;;;;17.00;11.52;;;;;;;5.70;80.03;96696.47;4996547;28;20506;-78
2023/04/26 02:20:16;;;;;;;16.10;11.73;;;;;;;5.77;80.58;96684.56;5013573;28;20136;-78
2023/04/26 02:22:44;;;;;;;15.90;11.35;;;;;;;5.84;80.30;96683.94;4994846;28;20050;-78
2023/04/26 02:25:11;;;;;;;16.58;10.82;;;;;;;5.88;80.03;96686.13;5004126;28;20061;-78
2023/04/26 02:27:39;;;;;;;16.52;11.45;;;;;;;5.97;81.42;96687.03;5015852;28;20049;-78
2023/04/26 02:30:08;;;;;;;17.63;11.60;;;;;;;6.01;80.29;96688.31;5032629;28;20078;-78
2023/04/26 02:32:37;;;;;;;17.67;11.40;;;;;;;5.96;78.07;96683.59;5003598;28;20080;-78
2023/04/26 02:35:05;;;;;;;17.00;11.05;;;;;;;6.00;80.71;96683.31;4999454;28;20089;-78
2023/04/26 02:37:33;;;;;;;15.82;11.23;;;;;;;6.06;81.55;96687.91;5017617;28;20136;-78
2023/04/26 02:40:01;;;;;;;17.63;11.10;;;;;;;6.04;81.02;96690.63;4995948;28;20054;-78
2023/04/26 02:42:28;;;;;;;13.45;10.30;;;;;;;6.04;81.56;96688.03;4996016;28;20050;-78
2023/04/26 02:44:56;;;;;;;16.15;10.32;;;;;;;6.06;82.59;96683.53;4997693;28;20052;-79
2023/04/26 02:47:23;;;;;;;16.65;11.90;;;;;;;6.15;83.75;96685.19;4997828;28;20502;-78
2023/04/26 02:49:52;;;;;;;19.67;11.50;;;;;;;6.23;82.76;96688.78;4997387;28;20057;-78
2023/04/26 02:52:20;;;;;;;19.52;11.07;;;;;;;6.21;80.29;96675.19;4995922;28;20050;-78
2023/04/26 02:54:48;;;;;;;13.05;9.93;;;;;;;6.21;80.67;96667.41;5000703;28;20049;-79
2023/04/26 02:57:15;;;;;;;17.75;11.35;;;;;;;6.24;80.65;96680.06;5001454;28;20051;-79
2023/04/26 02:59:43;;;;;;;15.60;10.95;;;;;;;6.26;81.15;96675.56;4994109;28;20050;-78
2023/04/26 03:02:11;;;;;;;15.25;10.90;;;;;;;6.23;79.55;96686.19;5010662;28;20045;-78
2023/04/26 03:04:38;;;;;;;16.58;11.05;;;;;;;6.17;78.61;96680.69;5013989;28;20046;-79
2023/04/26 03:07:07;;;;;;;15.25;9.45;;;;;;;6.11;79.71;96683.88;4998168;28;20052;-78
2023/04/26 03:09:37;;;;;;;16.08;10.48;;;;;;;6.07;81.10;96685.13;5007886;28;20061;-78
2023/04/26 03:12:06;;;;;;;14.85;10.55;;;;;;;6.09;82.72;96688.38;5013588;28;20555;-79
2023/04/26 03:14:33;;;;;;;15.55;11.32;;;;;;;6.13;83.12;96692.31;5012923;28;20056;-79
2023/04/26 03:17:02;;;;;;;15.73;11.88;;;;;;;6.13;83.46;96696.69;4997792;28;20088;-78
2023/04/26 03:19:29;;;;;;;24.02;12.23;;;;;;;6.11;82.08;96701.19;5000414;28;20061;-79
2023/04/26 03:21:57;;;;;;;18.20;11.50;;;;;;;6.04;81.32;96695.81;4997616;28;20142;-78
2023/04/26 03:24:26;;;;;;;17.42;11.85;;;;;;;6.05;82.85;96701.78;5010331;28;20057;-78
2023/04/26 03:26:54;;;;;;;17.52;11.85;;;;;;;6.07;82.67;96698.09;5017150;28;20057;-78
2023/04/26 03:29:21;;;;;;;20.38;11.65;;;;;;;6.05;81.74;96697.41;5004682;28;20050;-79
2023/04/26 03:31:49;;;;;;;21.95;12.88;;;;;;;6.01;79.84;96688.31;4998108;28;20054;-78
2023/04/26 03:34:16;;;;;;;18.27;11.45;;;;;;;5.83;77.86;96680.56;4997286;28;20046;-78
2023/04/26 03:36:44;;;;;;;17.67;11.43;;;;;;;5.64;77.41;96693.66;5007801;28;20057;-78
2023/04/26 03:39:11;;;;;;;18.52;12.35;;;;;;;5.45;77.28;96692.03;5006258;28;20058;-78
2023/04/26 03:41:40;;;;;;;23.00;12.50;;;;;;;5.30;77.31;96689.16;4997742;28;20050;-78
2023/04/26 03:44:08;;;;;;;20.92;12.75;;;;;;;5.20;77.26;96694.38;5003529;28;20077;-78
2023/04/26 03:46:36;;;;;;;17.80;11.25;;;;;;;5.10;78.03;96689.25;5010808;28;20050;-78
2023/04/26 03:49:03;;;;;;;18.15;11.93;;;;;;;5.06;78.04;96693.09;5015191;28;20056;-78
2023/04/26 03:51:31;;;;;;;18.75;12.05;;;;;;;5.03;78.29;96692.56;5017484;28;20053;-78
2023/04/26 03:53:59;;;;;;;15.40;11.10;;;;;;;5.03;78.11;96697.72;5008168;28;20042;-78
2023/04/26 03:56:26;;;;;;;18.02;11.73;;;;;;;5.01;77.54;96697.06;5011052;28;20136;-78
2023/04/26 03:58:55;;;;;;;17.05;11.35;;;;;;;4.93;77.19;96696.00;5012698;28;20081;-78
2023/04/26 04:01:23;;;;;;;17.65;11.52;;;;;;;4.88;77.06;96705.97;5016682;28;20142;-78
2023/04/26 04:03:50;;;;;;;18.55;11.00;;;;;;;4.84;77.07;96704.63;5014494;28;20046;-78
2023/04/26 04:06:18;;;;;;;14.25;10.43;;;;;;;4.89;78.32;96717.13;4996438;28;20057;-78
2023/04/26 04:08:46;;;;;;;18.23;11.75;;;;;;;4.93;78.24;96719.28;5005148;28;20046;-78
2023/04/26 04:11:13;;;;;;;16.17;11.65;;;;;;;5.00;79.85;96718.72;5010593;28;20053;-78
2023/04/26 04:13:43;;;;;;;17.35;10.63;;;;;;;5.05;79.26;96711.31;4999839;28;20129;-77
2023/04/26 04:16:12;;;;;;;18.45;11.60;;;;;;;4.99;76.90;96712.72;5007528;28;20395;-78
2023/04/26 04:18:39;;;;;;;17.27;10.73;;;;;;;4.90;76.66;96711.81;4996989;28;20054;-78
2023/04/26 04:21:07;;;;;;;16.27;10.85;;;;;;;4.86;78.09;96713.06;4997365;28;20050;-78
2023/04/26 04:23:34;;;;;;;20.10;11.40;;;;;;;4.90;78.62;96722.16;5015377;28;20171;-78
2023/04/26 04:26:02;;;;;;;18.55;11.98;;;;;;;4.85;77.80;96715.78;5013153;28;20060;-78
2023/04/26 04:28:30;;;;;;;17.45;11.10;;;;;;;4.74;76.55;96719.34;5004896;28;20057;-78
2023/04/26 04:30:59;;;;;;;16.30;10.82;;;;;;;4.56;76.38;96721.88;4995775;28;20512;-78
2023/04/26 04:33:28;;;;;;;16.77;11.95;;;;;;;4.40;76.94;96722.47;4997238;28;20446;-78
2023/04/26 04:35:57;;;;;;;19.33;13.10;;;;;;;4.35;77.50;96719.47;4996277;28;20050;-78
2023/04/26 04:38:25;;;;;;;21.80;14.00;;;;;;;4.33;76.89;96724.00;4996696;28;20054;-78
2023/04/26 04:40:52;;;;;;;17.90;12.20;;;;;;;4.32;77.13;96724.94;4996480;28;20054;-78
2023/04/26 04:43:20;;;;;;;19.08;12.07;;;;;;;4.28;76.48;96721.00;5001869;28;20045;-78
2023/04/26 04:45:48;;;;;;;17.85;12.63;;;;;;;4.24;76.44;96722.22;5014086;28;20046;-78
2023/04/26 04:48:15;;;;;;;19.48;11.77;;;;;;;4.22;76.38;96729.28;5008011;28;20043;-78
2023/04/26 04:50:45;;;;;;;16.65;11.55;;;;;;;4.17;76.54;96723.75;5000322;28;20068;-80
2023/04/26 04:53:12;;;;;;;17.20;11.60;;;;;;;4.12;76.38;96726.75;4999353;28;20532;-80
2023/04/26 04:55:45;;;;;;;23.20;12.82;;;;;;;4.04;76.62;96727.41;5020074;28;20050;-83
2023/04/26 04:58:13;;;;;;;27.90;13.65;;;;;;;3.98;77.03;96722.81;5088508;23;20076;-81
2023/04/26 05:00:42;;;;;;;18.50;12.13;;;;;;;4.03;78.51;96730.97;5049015;28;20064;-81
2023/04/26 05:03:10;;;;;;;18.63;12.50;;;;;;;4.13;79.21;96734.34;5049142;28;20056;-81
2023/04/26 05:05:49;;;;;;;21.23;13.18;;;;;;;4.27;82.04;96737.47;5051378;28;20042;-81
2023/04/26 05:08:16;;;;;;;21.30;13.68;;;;;;;4.38;79.71;96741.66;5039148;28;20052;-81
2023/04/26 05:10:45;;;;;;;26.40;14.23;;;;;;;4.36;77.59;96739.19;5036557;28;20481;-81
2023/04/26 05:13:12;;;;;;;24.35;14.40;;;;;;;4.29;77.12;96741.53;5039564;28;20128;-81
2023/04/26 05:15:40;;;;;;;22.67;13.85;;;;;;;4.22;76.86;96737.03;5033355;28;20136;-80
2023/04/26 05:18:08;;;;;;;19.27;12.68;;;;;;;4.21;77.30;96738.00;5030872;28;20081;-81
2023/04/26 05:20:36;;;;;;;24.02;13.32;;;;;;;4.23;77.13;96741.28;5021376;28;20050;-81
2023/04/26 05:23:06;;;;;;;23.25;13.68;;;;;;;4.22;76.58;96749.94;5024405;28;20528;-81
2023/04/26 05:25:37;;;;;;;18.88;11.95;;;;;;;4.20;77.18;96752.69;5019626;28;20042;-81
2023/04/26 05:28:06;;;;;;;21.45;13.88;;;;;;;4.26;78.38;96759.06;5020817;28;20044;-81
2023/04/26 05:30:34;;;;;;;19.02;12.45;;;;;;;4.39;79.47;96761.34;5021641;28;20485;-81
2023/04/26 05:33:02;;;;;;;21.92;14.63;;;;;;;4.49;80.00;96762.16;5038157;28;20060;-83
2023/04/26 05:35:30;;;;;;;22.48;14.52;;;;;;;4.52;79.37;96762.66;5038434;28;20077;-81
2023/04/26 05:37:58;;;;;;;20.08;13.73;;;;;;;4.53;78.23;96764.31;5041281;28;20056;-83
2023/04/26 05:40:27;;;;;;;20.27;13.73;;;;;;;4.54;78.05;96765.94;5038370;28;20136;-80
2023/04/26 05:42:58;;;;;;;20.15;13.52;;;;;;;4.56;78.33;96765.78;5027636;28;20030;-81
2023/04/26 05:45:28;;;;;;;18.92;12.90;;;;;;;4.68;79.78;96767.28;5020671;28;20058;-81
2023/04/26 05:47:56;;;;;;;17.30;12.13;;;;;;;4.80;79.42;96770.50;5028145;28;20072;-81
2023/04/26 05:50:23;;;;;;;20.83;13.68;;;;;;;4.88;79.47;96775.78;5038330;28;20425;-81
2023/04/26 05:52:51;;;;;;;20.05;13.02;;;;;;;4.91;78.01;96780.66;5038277;28;20786;-81
2023/04/26 05:55:20;;;;;;;17.80;12.65;;;;;;;4.97;78.67;96781.06;5037575;28;20052;-81
2023/04/26 05:57:49;;;;;;;19.42;13.68;;;;;;;5.03;78.03;96783.03;5032198;28;20057;-80
2023/04/26 06:00:19;;;;;;;19.63;12.93;;;;;;;5.11;79.24;96783.16;5020581;28;20107;-81
2023/04/26 06:02:47;;;;;;;21.10;14.15;;;;;;;5.28;81.00;96782.41;5019379;28;20077;-81
2023/04/26 06:05:15;;;;;;;24.30;14.75;;;;;;;5.40;79.92;96787.38;5020588;28;20049;-81
2023/04/26 06:07:43;;;;;;;22.88;15.52;;;;;;;5.49;80.45;96781.34;5036431;28;20053;-81
2023/04/26 06:10:12;;;;;;;24.70;14.50;;;;;;;5.60;81.76;96786.31;5037040;28;20046;-81
2023/04/26 06:12:40;;;;;;;23.23;14.68;;;;;;;5.67;82.01;96784.75;5026128;28;20050;-79
2023/04/26 06:15:10;;;;;;;20.45;13.43;;;;;;;5.73;82.23;96786.78;5018119;28;20402;-79
2023/04/26 06:17:38;;;;;;;20.45;14.85;;;;;;;5.84;83.15;96792.69;5017404;28;20052;-80
2023/04/26 06:20:08;;;;;;;20.90;13.93;;;;;;;5.96;82.66;96788.94;5035044;28;20064;-81
2023/04/26 06:22:36;;;;;;;20.63;13.40;;;;;;;6.03;81.22;96786.59;5026181;28;20114;-81
2023/04/26 06:25:05;;;;;;;21.65;14.35;;;;;;;6.15;82.33;96782.81;5017189;28;20046;-80
2023/04/26 06:27:33;;;;;;;21.77;14.35;;;;;;;6.33;82.73;96785.38;5034655;28;20132;-81
2023/04/26 06:30:00;;;;;;;23.95;14.13;;;;;;;6.50;82.72;96792.31;5022356;28;20075;-80
2023/04/26 06:32:29;;;;;;;20.05;14.23;;;;;;;6.67;82.46;96787.22;5034948;28;20061;-81
2023/04/26 06:34:57;;;;;;;20.90;14.10;;;;;;;6.83;82.04;96787.34;5019800;28;20054;-81
2023/04/26 06:37:25;;;;;;;18.35;13.82;;;;;;;6.95;80.71;96790.47;5019914;28;20045;-81
2023/04/26 06:39:52;;;;;;;22.20;12.55;;;;;;;7.01;78.19;96795.03;5027834;28;20053;-81
2023/04/26 06:42:21;;;;;;;18.35;13.27;;;;;;;7.11;79.01;96795.75;5043725;28;20571;-81
2023/04/26 06:44:49;;;;;;;20.77;12.88;;;;;;;7.28;79.34;96799.22;5039321;28;20054;-80
2023/04/26 06:47:16;;;;;;;18.40;12.98;;;;;;;7.38;78.14;96797.31;5022289;28;20120;-81
2023/04/26 06:49:45;;;;;;;19.15;12.07;;;;;;;7.43;75.34;96804.63;5035007;28;20116;-81
2023/04/26 06:52:13;;;;;;;17.73;11.68;;;;;;;7.55;74.05;96798.19;5020704;28;20097;-81
2023/04/26 06:54:41;;;;;;;17.58;12.60;;;;;;;7.69;75.15;96799.34;5026323;28;20110;-81
2023/04/26 06:57:22;;;;;;;16.85;12.48;;;;;;;7.81;72.85;96805.88;5035028;28;20144;-81
2023/04/26 06:59:50;;;;;;;17.02;11.35;;;;;;;7.91;71.14;96807.50;5031580;28;20480;-81
2023/04/26 07:02:18;;;;;;;14.70;11.27;;;;;;;8.02;70.37;96807.19;5019494;28;20465;-81
2023/04/26 07:04:47;;;;;;;15.13;10.88;;;;;;;8.12;69.04;96800.06;5019451;28;20140;-81
2023/04/26 07:07:15;;;;;;;13.90;10.48;;;;;;;8.22;68.53;96797.31;5021043;28;20056;-81
2023/04/26 07:09:44;;;;;;;22.02;9.43;;;;;;;8.33;67.65;96801.38;5028124;28;20111;-79
2023/04/26 07:12:11;;;;;;;15.07;10.00;;;;;;;8.46;67.61;96791.31;5035408;28;20109;-80
2023/04/26 07:14:40;;;;;;;17.15;9.82;;;;;;;8.55;66.84;96800.78;5033629;28;20071;-81
2023/04/26 07:17:07;;;;;;;14.43;9.75;;;;;;;8.72;65.84;96793.75;5028225;28;20048;-80
2023/04/26 07:19:35;;;;;;;13.00;8.27;;;;;;;8.88;65.16;96790.31;5032428;28;20052;-81
2023/04/26 07:22:04;;;;;;;15.82;8.05;;;;;;;9.05;64.04;96789.28;5022962;28;20060;-80
2023/04/26 07:24:32;;;;;;;12.82;8.10;;;;;;;9.19;63.93;96792.19;5022035;28;20078;-80
2023/04/26 07:27:00;;;;;;;12.63;8.48;;;;;;;9.28;62.94;96791.16;5019156;28;20050;-80
2023/04/26 07:29:27;;;;;;;12.35;8.55;;;;;;;9.33;62.45;96788.84;5027367;28;20464;-81
2023/04/26 07:31:55;;;;;;;15.23;8.35;;;;;;;9.35;61.59;96786.09;5022232;28;20056;-81
2023/04/26 07:34:23;;;;;;;14.35;8.13;;;;;;;9.42;61.57;96789.63;5016328;28;20050;-80
2023/04/26 07:36:50;;;;;;;12.13;7.90;;;;;;;9.57;61.15;96781.91;5019589;28;20056;-81
2023/04/26 07:39:19;;;;;;;11.63;7.85;;;;;;;9.67;60.45;96785.13;5021799;28;20041;-81
2023/04/26 07:41:47;;;;;;;12.55;8.07;;;;;;;9.77;60.25;96780.50;5020393;28;20052;-80
2023/04/26 07:44:15;;;;;;;10.70;7.32;;;;;;;9.91;60.26;96781.56;5022382;28;20069;-80
2023/04/26 07:46:42;;;;;;;10.00;7.15;;;;;;;10.08;59.96;96783.09;5026990;28;20053;-81
2023/04/26 07:49:10;;;;;;;12.18;7.93;;;;;;;10.21;63.08;96777.28;5024634;28;20491;-81
2023/04/26 07:51:38;;;;;;;13.05;7.43;;;;;;;10.37;62.42;96772.97;5026039;28;20053;-81
2023/04/26 07:54:05;;;;;;;11.68;8.10;;;;;;;10.49;63.83;96780.19;5034406;28;20520;-81
2023/04/26 07:56:34;;;;;;;10.40;7.50;;;;;;;10.66;61.87;96777.41;5036531;28;20069;-81
2023/04/26 07:59:03;;;;;;;9.85;6.28;;;;;;;10.71;57.80;96777.69;5019762;28;20046;-81
2023/04/26 08:01:31;;;;;;;11.18;5.95;;;;;;;10.70;59.22;96776.06;5019306;28;20104;-82
2023/04/26 08:04:00;;;;;;;11.70;6.57;;;;;;;10.79;60.62;96779.41;5025760;28;20410;-82
2023/04/26 08:06:32;;;;;;;8.23;5.45;;;;;;;10.97;56.65;96779.06;5030585;28;20105;-81
2023/04/26 08:09:05;;;;;;;8.82;5.43;;;;;;;11.16;55.85;96775.91;5043556;28;20053;-82
2023/04/26 08:11:32;;;;;;;6.85;4.68;;;;;;;11.38;57.38;96779.41;5049165;28;20057;-82
2023/04/26 08:14:02;;;;;;;6.80;4.13;;;;;;;11.52;53.16;96785.59;5035911;28;20057;-81
2023/04/26 08:16:29;;;;;;;9.00;4.68;;;;;;;11.73;55.81;96784.84;5028716;28;20045;-81
2023/04/26 08:19:01;;;;;;;8.63;4.60;;;;;;;11.91;49.90;96782.63;5023301;28;20046;-82
2023/04/26 08:21:29;;;;;;;7.28;3.47;;;;;;;12.16;54.17;96785.72;5036968;28;20060;-81
2023/04/26 08:23:57;;;;;;;5.35;3.45;;;;;;;12.41;49.02;96785.31;5030134;28;20109;-82
2023/04/26 08:26:25;;;;;;;7.03;4.55;;;;;;;12.58;52.27;96783.25;5029759;28;20050;-81
2023/04/26 08:28:53;;;;;;;9.02;4.22;;;;;;;12.63;49.39;96778.25;5022910;28;20494;-81
2023/04/26 08:31:22;;;;;;;7.60;4.10;;;;;;;12.67;47.83;96779.50;5038354;28;20050;-81
2023/04/26 08:33:53;;;;;;;6.43;3.72;;;;;;;12.77;53.68;96782.59;5052173;28;20128;-81
2023/04/26 08:36:21;;;;;;;8.98;3.28;;;;;;;12.94;47.05;96780.50;5041454;28;20077;-81
2023/04/26 08:38:48;;;;;;;4.28;3.13;;;;;;;13.06;47.79;96777.34;5036274;28;20049;-81
2023/04/26 08:41:22;;;;;;;5.60;3.05;;;;;;;13.15;44.15;96776.97;5044385;28;20041;-81
2023/04/26 08:43:50;;;;;;;6.55;3.60;;;;;;;13.24;44.47;96774.19;5039354;28;20106;-81
2023/04/26 08:46:19;;;;;;;4.85;3.00;;;;;;;13.35;45.16;96792.03;5028548;28;20088;-81
2023/04/26 08:48:55;;;;;;;5.30;2.97;;;;;;;13.50;43.47;96787.44;5017963;28;20049;-81
2023/04/26 08:51:23;;;;;;;8.30;4.10;;;;;;;13.64;45.16;96790.13;5020512;28;20152;-81
2023/04/26 08:53:53;;;;;;;6.25;4.13;;;;;;;13.63;42.98;96785.91;5023125;28;20201;-81
2023/04/26 08:56:22;;;;;;;12.48;3.50;;;;;;;13.43;43.12;96777.97;5033683;28;20049;-81
2023/04/26 08:58:50;;;;;;;13.20;7.03;;;;;;;13.25;42.63;96781.03;5035584;28;20056;-80
2023/04/26 09:01:21;;;;;;;11.15;5.72;;;;;;;13.12;48.52;96780.00;5035438;28;20046;-81
2023/04/26 09:03:50;;;;;;;10.05;5.90;;;;;;;13.17;48.86;96785.44;5037111;28;20049;-81
2023/04/26 09:06:19;;;;;;;6.53;3.47;;;;;;;13.20;46.28;96792.09;5023794;28;20046;-81
2023/04/26 09:08:47;;;;;;;9.65;3.38;;;;;;;13.22;43.96;96789.31;5022213;28;20045;-81
2023/04/26 09:11:15;;;;;;;6.00;2.42;;;;;;;13.27;47.91;96792.13;5038093;28;20069;-81
2023/04/26 09:13:43;;;;;;;5.60;2.90;;;;;;;13.53;47.60;96786.25;5039197;28;20132;-81
2023/04/26 09:16:11;;;;;;;9.50;4.15;;;;;;;13.63;44.95;96784.06;5035972;28;20053;-81
2023/04/26 09:18:49;;;;;;;5.97;2.97;;;;;;;13.75;42.25;96792.16;5026477;28;20073;-81
2023/04/26 09:21:19;;;;;;;7.25;3.70;;;;;;;13.94;42.60;96780.94;5016699;28;20046;-81
2023/04/26 09:24:00;;;;;;;4.65;2.88;;;;;;;13.99;41.29;96783.78;5025044;28;20128;-81
2023/04/26 09:26:28;;;;;;;4.03;2.85;;;;;;;14.07;43.46;96785.41;5034823;28;20505;-81
2023/04/26 09:29:12;;;;;;;5.38;2.85;;;;;;;13.98;41.10;96782.16;5034679;28;20072;-81
2023/04/26 09:31:42;;;;;;;5.78;2.97;;;;;;;13.92;44.92;96782.94;5022204;28;20509;-78
2023/04/26 09:34:10;;;;;;;6.35;3.28;;;;;;;13.98;42.56;96782.16;5015507;28;20049;-79
2023/04/26 09:36:55;;;;;;;3.78;2.50;;;;;;;13.96;45.04;96778.91;5018297;28;20115;-81
2023/04/26 09:39:34;;;;;;;6.10;3.33;;;;;;;14.07;43.83;96771.50;5008765;28;20081;-81
2023/04/26 09:42:03;;;;;;;3.92;2.53;;;;;;;14.25;46.65;96769.06;5017989;28;20557;-81
2023/04/26 09:44:31;;;;;;;7.30;3.17;;;;;;;14.50;42.47;96771.13;5017771;28;20064;-81
2023/04/26 09:47:00;;;;;;;4.18;3.00;;;;;;;14.65;40.25;96770.94;5026534;28;20422;-80
2023/04/26 09:49:28;;;;;;;6.70;2.70;;;;;;;14.71;40.25;96770.91;5025613;28;20088;-81
2023/04/26 09:52:05;;;;;;;6.22;2.60;;;;;;;14.59;40.33;96772.56;5035955;28;20084;-81
2023/04/26 09:54:45;;;;;;;4.60;2.53;;;;;;;14.44;45.06;96770.09;5034202;28;20049;-81
2023/04/26 09:57:15;;;;;;;5.00;2.45;;;;;;;14.29;40.62;96772.91;5020782;28;20512;-81
2023/04/26 09:59:44;;;;;;;7.47;2.65;;;;;;;14.20;40.09;96763.63;5031897;28;20056;-80
2023/04/26 10:02:20;;;;;;;4.05;3.08;;;;;;;14.20;38.87;96766.25;5032510;28;20053;-81
2023/04/26 10:04:51;;;;;;;4.25;2.70;;;;;;;14.33;39.41;96762.84;5043175;28;20041;-81
2023/04/26 10:07:23;;;;;;;4.75;2.35;;;;;;;14.35;38.46;96745.06;5040441;28;20552;-81
2023/04/26 10:09:51;;;;;;;5.78;2.60;;;;;;;14.43;40.30;96748.31;5024572;28;20066;-81
2023/04/26 10:12:20;;;;;;;6.40;3.15;;;;;;;14.52;39.07;96754.16;5014782;28;20552;-81
2023/04/26 10:14:48;;;;;;;6.70;2.92;;;;;;;14.48;39.64;96749.53;5027064;28;20412;-80
2023/04/26 10:17:18;;;;;;;4.05;2.30;;;;;;;14.40;40.78;96748.69;5031586;28;20053;-80
2023/04/26 10:19:50;;;;;;;6.05;3.00;;;;;;;14.40;40.13;96748.69;5033846;28;20053;-80
2023/04/26 10:22:24;;;;;;;5.53;2.70;;;;;;;14.50;43.44;96747.50;5019113;28;20402;-80
2023/04/26 10:24:54;;;;;;;5.25;2.60;;;;;;;14.52;45.62;96748.06;5031501;28;20045;-81
2023/04/26 10:27:47;;;;;;;7.15;2.60;;;;;;;14.61;46.04;96742.47;5032403;28;20072;-78
2023/04/26 10:30:15;;;;;;;;;;;;;;;14.81;40.91;96739.81;5029768;28;20050;-81
2023/04/26 10:33:12;;;;;;;3.67;2.25;;;;;;;15.08;39.59;96733.69;4994136;28;20352;-78
2023/04/26 10:36:03;;;;;;;4.60;2.47;;;;;;;15.17;38.44;96733.25;5002645;28;20390;-79
2023/04/26 10:38:32;;;;;;;3.13;2.15;;;;;;;15.12;38.55;96730.44;5013775;28;20057;-81
2023/04/26 10:41:33;;;;;;;2.55;2.03;;;;;;;15.12;38.00;96729.63;5014813;28;20058;-79
2023/04/26 10:44:38;;;;;;;4.82;1.85;;;;;;;15.22;36.30;96728.19;5030234;28;20045;-81
2023/04/26 10:47:07;;;;;;;2.42;1.52;;;;;;;15.17;38.98;96727.97;5039423;28;20053;-82
2023/04/26 10:49:45;;;;;;;3.00;1.98;;;;;;;15.20;39.21;96722.34;5041160;28;20097;-81
2023/04/26 10:52:32;;;;;;;2.70;1.90;;;;;;;15.33;40.23;96725.94;5035760;28;20129;-81
2023/04/26 10:55:05;;;;;;;5.93;2.20;;;;;;;15.38;39.09;96726.91;5035265;28;20114;-79
2023/04/26 10:57:50;;;;;;;3.90;1.90;;;;;;;15.36;36.53;96731.56;5036282;28;20045;-81
2023/04/26 11:00:27;;;;;;;2.80;2.05;;;;;;;15.32;37.48;96725.09;5027105;28;20104;-80
2023/04/26 11:03:08;;;;;;;2.83;1.90;;;;;;;15.36;36.57;96721.06;5032422;28;20080;-80
2023/04/26 11:05:52;;;;;;;4.72;2.10;;;;;;;15.45;36.66;96719.78;5005874;28;20054;-82
2023/04/26 11:08:24;;;;;;;3.87;1.40;;;;;;;15.62;37.10;96720.13;5036958;28;20030;-80
2023/04/26 11:11:05;;;;;;;5.13;2.20;;;;;;;15.80;35.76;96716.00;5037273;28;20081;-80
2023/04/26 11:13:35;;;;;;;4.75;2.17;;;;;;;15.93;39.64;96715.91;5042698;28;20069;-80
2023/04/26 11:16:05;;;;;;;2.88;1.98;;;;;;;16.09;36.82;96719.84;5034521;28;20052;-80
2023/04/26 11:18:33;;;;;;;2.30;1.40;;;;;;;16.16;40.52;96727.69;5038126;28;20492;-80
2023/04/26 11:21:01;;;;;;;3.50;2.00;;;;;;;16.24;37.71;96716.91;5038330;28;20053;-80
2023/04/26 11:23:30;;;;;;;3.90;1.50;;;;;;;16.17;34.78;96713.53;5027825;28;20069;-80
2023/04/26 11:26:01;;;;;;;5.93;1.95;;;;;;;16.05;34.57;96719.50;5018074;28;20132;-80
2023/04/26 11:28:30;;;;;;;4.20;1.63;;;;;;;15.97;38.06;96716.31;5023407;28;20050;-81
2023/04/26 11:31:01;;;;;;;3.58;1.55;;;;;;;15.92;38.83;96710.84;5027012;28;20136;-80
2023/04/26 11:33:30;;;;;;;5.07;1.60;;;;;;;15.83;39.33;96705.88;5022150;28;20073;-80
2023/04/26 11:35:58;;;;;;;9.52;1.88;;;;;;;15.67;37.45;96706.34;5026310;28;20046;-80
2023/04/26 11:38:27;;;;;;;4.10;2.30;;;;;;;15.44;36.16;96704.25;5025864;28;20168;-80
2023/04/26 11:40:56;;;;;;;5.97;2.35;;;;;;;15.22;37.46;96701.91;5043586;28;20077;-80